createdAt,value
2022-09-05T00:02:04.957Z,17.45
2022-09-05T00:04:38.522Z,17.48
2022-09-05T00:07:41.247Z,17.55
2022-09-05T00:10:13.257Z,17.49
2022-09-05T00:12:45.076Z,17.43
2022-09-05T00:15:23.607Z,17.45
2022-09-05T00:21:33.538Z,17.37
2022-09-05T00:24:27.839Z,17.37
2022-09-05T00:24:42.428Z,17.43
2022-09-05T00:27:18.916Z,17.46
2022-09-05T00:31:08.562Z,17.54
2022-09-05T00:33:20.291Z,17.49
2022-09-05T00:36:01.062Z,17.53
2022-09-05T00:38:36.941Z,17.51
2022-09-05T00:41:10.968Z,17.55
2022-09-05T00:43:43.269Z,17.56
2022-09-05T00:46:16.004Z,17.56
2022-09-05T00:48:52.264Z,17.58
2022-09-05T00:51:35.704Z,17.59
2022-09-05T00:54:16.422Z,17.63
2022-09-05T00:56:59.993Z,17.67
2022-09-05T00:59:58.909Z,17.66
2022-09-05T01:02:52.095Z,17.68
2022-09-05T01:05:39.641Z,17.66
2022-09-05T01:08:28.467Z,17.55
2022-09-05T01:11:05.584Z,17.59
2022-09-05T01:13:42.643Z,17.57
2022-09-05T01:16:22.941Z,17.55
2022-09-05T01:19:00.684Z,17.54
2022-09-05T01:21:49.086Z,17.50
2022-09-05T01:24:32.881Z,17.45
2022-09-05T01:28:43.266Z,17.42
2022-09-05T01:30:36.987Z,17.44
2022-09-05T01:33:15.920Z,17.46
2022-09-05T01:36:09.076Z,17.46
2022-09-05T01:38:57.529Z,17.44
2022-09-05T01:41:42.767Z,17.42
2022-09-05T01:44:38.466Z,17.39
2022-09-05T01:47:28.463Z,17.35
2022-09-05T01:50:05.986Z,17.30
2022-09-05T01:53:03.683Z,17.34
2022-09-05T01:56:04.672Z,17.29
2022-09-05T01:58:52.932Z,17.28
2022-09-05T02:01:32.953Z,17.24
2022-09-05T02:04:24.847Z,17.21
2022-09-05T02:07:29.806Z,17.17
2022-09-05T02:10:19.953Z,17.11
2022-09-05T02:12:58.494Z,17.15
2022-09-05T02:15:42.885Z,17.08
2022-09-05T02:18:33.937Z,17.06
2022-09-05T02:21:03.966Z,17.03
2022-09-05T02:23:44.539Z,16.95
2022-09-05T02:26:19.388Z,16.95
2022-09-05T02:28:54.889Z,16.88
2022-09-05T02:31:31.056Z,16.85
2022-09-05T02:34:08.499Z,16.81
2022-09-05T02:36:43.958Z,16.80
2022-09-05T02:45:08.602Z,16.78
2022-09-05T02:45:16.998Z,16.73
2022-09-05T02:45:30.417Z,16.68
2022-09-05T02:48:15.788Z,16.61
2022-09-05T02:57:24.974Z,16.56
2022-09-05T02:57:35.917Z,16.51
2022-09-05T02:57:39.468Z,16.54
2022-09-05T03:00:13.503Z,16.49
2022-09-05T03:03:05.458Z,16.46
2022-09-05T03:05:39.513Z,16.45
2022-09-05T03:08:37.393Z,16.41
2022-09-05T03:11:34.078Z,16.36
2022-09-05T03:14:36.002Z,16.34
2022-09-05T03:17:21.949Z,16.24
2022-09-05T03:20:33.893Z,16.19
2022-09-05T03:23:39.963Z,16.19
2022-09-05T03:26:43.527Z,16.19
2022-09-05T03:29:38.493Z,16.17
2022-09-05T03:32:43.041Z,16.17
2022-09-05T03:35:49.179Z,16.14
2022-09-05T03:38:41.463Z,16.13
2022-09-05T03:41:40.059Z,16.09
2022-09-05T03:44:29.268Z,16.05
2022-09-05T03:47:16.738Z,16.02
2022-09-05T03:54:12.181Z,15.97
2022-09-05T03:57:19.054Z,15.96
2022-09-05T03:57:33.807Z,15.95
2022-09-05T04:00:10.440Z,15.93
2022-09-05T04:05:45.410Z,15.89
2022-09-05T04:08:28.343Z,15.84
2022-09-05T04:08:48.847Z,15.83
2022-09-05T04:11:22.169Z,15.81
2022-09-05T04:13:56.996Z,15.77
2022-09-05T04:16:29.424Z,15.80
2022-09-05T04:19:11.910Z,15.79
2022-09-05T04:21:47.948Z,15.70
2022-09-05T04:24:26.111Z,15.70
2022-09-05T04:27:16.171Z,15.66
2022-09-05T04:29:58.747Z,15.62
2022-09-05T04:32:41.430Z,15.60
2022-09-05T04:35:27.345Z,15.56
2022-09-05T04:37:59.766Z,15.56
2022-09-05T04:40:44.078Z,15.59
2022-09-05T04:43:22.120Z,15.54
2022-09-05T04:45:54.781Z,15.51
2022-09-05T04:48:29.625Z,15.52
2022-09-05T04:51:39.587Z,15.52
2022-09-05T04:54:31.236Z,15.50
2022-09-05T04:57:14.220Z,15.47
2022-09-05T05:01:52.384Z,15.43
2022-09-05T05:06:15.942Z,15.43
2022-09-05T05:06:16.893Z,15.43
2022-09-05T05:08:39.247Z,15.40
2022-09-05T05:16:26.556Z,15.37
2022-09-05T05:18:01.974Z,15.32
2022-09-05T05:18:14.531Z,15.36
2022-09-05T05:20:39.494Z,15.38
2022-09-05T05:22:56.124Z,15.33
2022-09-05T05:25:24.744Z,15.30
2022-09-05T05:28:18.663Z,15.31
2022-09-05T05:31:01.279Z,15.32
2022-09-05T05:33:34.898Z,15.37
2022-09-05T05:36:05.947Z,15.35
2022-09-05T05:38:45.193Z,15.33
2022-09-05T05:41:20.208Z,15.37
2022-09-05T05:43:52.010Z,15.40
2022-09-05T05:46:31.846Z,15.43
2022-09-05T05:49:19.736Z,15.45
2022-09-05T05:52:02.333Z,15.46
2022-09-05T05:54:38.466Z,15.47
2022-09-05T05:57:54.752Z,15.50
2022-09-05T06:00:40.500Z,15.50
2022-09-05T06:03:55.361Z,15.50
2022-09-05T06:06:55.776Z,15.54
2022-09-05T06:14:50.772Z,15.50
2022-09-05T06:15:04.902Z,15.54
2022-09-05T06:16:45.796Z,15.54
2022-09-05T06:20:47.473Z,15.54
2022-09-05T06:23:17.437Z,15.56
2022-09-05T06:26:33.322Z,15.49
2022-09-05T06:29:08.587Z,15.48
2022-09-05T06:31:50.999Z,15.50
2022-09-05T06:34:48.722Z,15.59
2022-09-05T06:37:27.735Z,15.63
2022-09-05T06:40:07.143Z,15.63
2022-09-05T06:42:43.675Z,15.65
2022-09-05T06:45:39.345Z,15.73
2022-09-05T06:48:44.688Z,15.75
2022-09-05T06:51:46.268Z,15.80
2022-09-05T06:54:47.198Z,15.86
2022-09-05T06:57:49.076Z,15.91
2022-09-05T07:00:23.844Z,15.91
2022-09-05T07:03:13.489Z,15.89
2022-09-05T07:05:55.733Z,15.95
2022-09-05T07:08:39.403Z,16.02
2022-09-05T07:11:16.972Z,16.07
2022-09-05T07:13:58.061Z,16.09
2022-09-05T07:16:38.948Z,16.15
2022-09-05T07:19:24.517Z,16.21
2022-09-05T07:22:29.538Z,16.25
2022-09-05T07:25:08.864Z,16.28
2022-09-05T07:27:44.430Z,16.32
2022-09-05T07:30:30.071Z,16.36
2022-09-05T07:33:01.376Z,16.38
2022-09-05T07:35:34.677Z,16.36
2022-09-05T07:38:15.941Z,16.41
2022-09-05T07:40:52.451Z,16.46
2022-09-05T07:43:24.158Z,16.50
2022-09-05T07:46:06.565Z,16.58
2022-09-05T07:48:38.563Z,16.64
2022-09-05T07:55:03.494Z,16.74
2022-09-05T07:56:58.569Z,16.84
2022-09-05T07:57:25.391Z,16.96
2022-09-05T07:59:48.900Z,17.14
2022-09-05T08:02:17.357Z,17.25
2022-09-05T08:04:45.998Z,17.26
2022-09-05T08:07:47.962Z,17.33
2022-09-05T08:10:15.411Z,17.33
2022-09-05T08:13:22.284Z,17.42
2022-09-05T08:16:02.702Z,17.49
2022-09-05T08:18:37.029Z,17.56
2022-09-05T08:21:11.208Z,17.68
2022-09-05T08:23:53.143Z,17.78
2022-09-05T08:26:34.949Z,17.86
2022-09-05T08:29:11.351Z,17.90
2022-09-05T08:31:44.539Z,17.93
2022-09-05T08:34:26.108Z,18.01
2022-09-05T08:37:02.409Z,18.02
2022-09-05T08:39:35.162Z,18.12
2022-09-05T08:42:28.277Z,18.21
2022-09-05T08:46:44.006Z,18.26
2022-09-05T08:48:16.795Z,18.31
2022-09-05T08:51:09.063Z,18.31
2022-09-05T08:53:59.062Z,18.17
2022-09-05T08:56:35.775Z,18.24
2022-09-05T08:59:28.134Z,18.28
2022-09-05T09:02:47.478Z,18.24
2022-09-05T09:05:14.879Z,18.28
2022-09-05T09:07:52.090Z,18.36
2022-09-05T09:10:44.762Z,18.41
2022-09-05T09:13:27.982Z,18.40
2022-09-05T09:16:06.639Z,18.55
2022-09-05T09:18:58.517Z,18.70
2022-09-05T09:21:35.563Z,18.96
2022-09-05T09:24:16.949Z,19.07
2022-09-05T09:26:54.958Z,19.18
2022-09-05T09:29:25.153Z,19.10
2022-09-05T09:32:09.686Z,19.14
2022-09-05T09:34:49.237Z,19.26
2022-09-05T09:37:54.398Z,19.33
2022-09-05T09:41:02.346Z,19.46
2022-09-05T09:43:52.845Z,19.36
2022-09-05T09:46:38.982Z,19.41
2022-09-05T09:49:27.732Z,19.41
2022-09-05T09:52:19.413Z,19.47
2022-09-05T09:55:17.356Z,19.58
2022-09-05T09:58:30.832Z,19.61
2022-09-05T10:01:35.571Z,19.68
2022-09-05T10:10:40.291Z,19.68
2022-09-05T10:11:09.667Z,19.72
2022-09-05T10:11:51.502Z,19.77
2022-09-05T10:14:49.509Z,19.81
2022-09-05T10:17:33.980Z,19.96
2022-09-05T10:20:29.426Z,20.03
2022-09-05T10:29:36.760Z,20.13
2022-09-05T10:34:31.172Z,20.15
2022-09-05T10:35:12.788Z,20.29
2022-09-05T10:37:49.573Z,20.38
2022-09-05T10:40:23.337Z,20.46
2022-09-05T10:43:01.198Z,20.52
2022-09-05T10:45:45.599Z,20.53
2022-09-05T10:48:23.087Z,20.64
2022-09-05T10:50:59.908Z,20.68
2022-09-05T10:53:39.277Z,20.65
2022-09-05T10:56:14.418Z,20.81
2022-09-05T11:01:45.376Z,20.84
2022-09-05T11:02:29.473Z,20.80
2022-09-05T11:05:09.280Z,20.91
2022-09-05T11:07:43.036Z,21.05
2022-09-05T11:10:17.377Z,21.08
2022-09-05T11:13:01.460Z,21.04
2022-09-05T11:15:36.464Z,21.12
2022-09-05T11:18:11.572Z,21.02
2022-09-05T11:20:50.617Z,21.08
2022-09-05T11:23:23.223Z,21.18
2022-09-05T11:26:02.129Z,21.32
2022-09-05T11:28:50.989Z,21.40
2022-09-05T11:31:47.757Z,21.38
2022-09-05T11:39:46.973Z,21.35
2022-09-05T11:40:02.603Z,21.40
2022-09-05T11:41:38.930Z,21.30
2022-09-05T11:44:30.239Z,21.33
2022-09-05T11:47:27.186Z,21.29
2022-09-05T11:50:37.139Z,21.27
2022-09-05T11:53:54.968Z,21.29
2022-09-05T11:57:31.909Z,21.44
2022-09-05T12:00:32.794Z,21.53
2022-09-05T12:03:57.063Z,21.53
2022-09-05T12:07:16.019Z,21.49
2022-09-05T12:10:46.548Z,21.52
2022-09-05T12:13:21.633Z,21.50
2022-09-05T12:15:53.431Z,21.34
2022-09-05T12:18:44.198Z,21.39
2022-09-05T12:21:31.865Z,21.32
2022-09-05T12:24:57.341Z,21.33
2022-09-05T12:27:38.757Z,21.40
2022-09-05T12:30:00.458Z,21.36
2022-09-05T12:35:44.673Z,21.33
2022-09-05T12:36:11.513Z,21.00
2022-09-05T12:40:55.285Z,20.84
2022-09-05T12:41:44.236Z,21.22
2022-09-05T12:44:45.653Z,20.90
2022-09-05T12:47:20.190Z,20.72
2022-09-05T12:50:02.566Z,20.66
2022-09-05T12:52:43.387Z,20.79
2022-09-05T12:55:26.134Z,20.77
2022-09-05T13:02:55.048Z,20.63
2022-09-05T13:03:12.047Z,20.55
2022-09-05T13:04:16.912Z,20.32
2022-09-05T13:06:43.693Z,20.44
2022-09-05T13:09:22.683Z,20.50
2022-09-05T13:14:52.376Z,20.49
2022-09-05T13:15:12.343Z,20.37
2022-09-05T13:17:52.392Z,20.36
2022-09-05T13:20:25.943Z,20.34
2022-09-05T13:22:54.843Z,20.33
2022-09-05T13:25:27.234Z,20.21
2022-09-05T13:28:02.130Z,20.12
2022-09-05T13:35:06.957Z,20.05
2022-09-05T13:38:30.437Z,19.96
2022-09-05T13:38:30.623Z,19.93
2022-09-05T13:39:13.707Z,19.88
2022-09-05T13:41:46.436Z,19.92
2022-09-05T13:44:26.614Z,19.86
2022-09-05T13:47:00.965Z,19.83
2022-09-05T13:49:35.276Z,19.92
2022-09-05T13:52:38.070Z,19.91
2022-09-05T13:55:21.458Z,20.04
2022-09-05T13:57:54.550Z,20.16
2022-09-05T14:01:08.177Z,20.36
2022-09-05T14:03:55.705Z,20.31
2022-09-05T14:06:49.062Z,20.53
2022-09-05T14:09:43.736Z,20.52
2022-09-05T14:12:29.484Z,20.38
2022-09-05T14:15:10.413Z,20.34
2022-09-05T14:17:58.346Z,20.31
2022-09-05T14:20:50.211Z,20.27
2022-09-05T14:23:25.098Z,20.13
2022-09-05T14:25:58.186Z,20.22
2022-09-05T14:28:31.753Z,20.29
2022-09-05T14:37:38.624Z,20.10
2022-09-05T14:37:42.764Z,20.20
2022-09-05T14:37:43.039Z,20.21
2022-09-05T14:40:45.668Z,20.12
2022-09-05T14:43:56.861Z,19.99
2022-09-05T14:46:45.603Z,19.95
2022-09-05T14:49:49.390Z,19.86
2022-09-05T14:52:23.581Z,19.84
2022-09-05T15:02:43.969Z,19.58
2022-09-05T15:02:57.150Z,19.57
2022-09-05T15:06:35.618Z,19.34
2022-09-05T15:12:17.519Z,19.34
2022-09-05T15:12:23.793Z,19.35
2022-09-05T15:15:00.767Z,19.27
2022-09-05T15:17:31.900Z,19.29
2022-09-05T15:20:07.498Z,19.34
2022-09-05T15:22:38.429Z,19.41
2022-09-05T15:25:17.177Z,19.42
2022-09-05T15:27:47.440Z,19.32
2022-09-05T15:30:27.531Z,19.36
2022-09-05T15:33:18.118Z,19.29
2022-09-05T15:35:54.107Z,19.24
2022-09-05T15:38:28.752Z,19.17
2022-09-05T15:41:19.791Z,19.10
2022-09-05T15:43:59.894Z,19.04
2022-09-05T15:46:41.309Z,18.88
2022-09-05T15:49:22.762Z,18.87
2022-09-05T15:51:52.826Z,18.75
2022-09-05T15:54:27.077Z,18.72
2022-09-05T15:57:15.272Z,18.78
2022-09-05T15:59:49.543Z,18.75
2022-09-05T16:02:22.902Z,18.84
2022-09-05T16:10:33.693Z,18.91
2022-09-05T16:10:41.440Z,18.97
2022-09-05T16:11:04.472Z,18.98
2022-09-05T16:13:52.877Z,18.88
2022-09-05T16:21:05.310Z,18.87
2022-09-05T16:23:29.141Z,18.92
2022-09-05T16:23:33.605Z,18.99
2022-09-05T16:25:11.032Z,19.11
2022-09-05T16:27:51.132Z,19.14
2022-09-05T16:30:28.288Z,19.09
2022-09-05T16:33:03.027Z,19.07
2022-09-05T16:35:35.396Z,19.07
2022-09-05T16:38:24.203Z,18.91
2022-09-05T16:41:09.675Z,18.89
2022-09-05T16:43:43.961Z,18.84
2022-09-05T16:46:21.076Z,18.83
2022-09-05T16:48:56.191Z,18.88
2022-09-05T16:51:35.925Z,18.86
2022-09-05T16:54:13.704Z,18.87
2022-09-05T16:56:45.363Z,18.88
2022-09-05T16:59:18.194Z,18.94
2022-09-05T17:02:09.973Z,18.98
2022-09-05T17:05:03.348Z,18.99
2022-09-05T17:07:43.911Z,18.97
2022-09-05T17:10:18.602Z,18.94
2022-09-05T17:12:47.741Z,18.96
2022-09-05T17:15:19.330Z,19.00
2022-09-05T17:18:22.412Z,19.01
2022-09-05T17:20:50.815Z,19.01
2022-09-05T17:28:01.177Z,18.97
2022-09-05T17:29:32.367Z,18.95
2022-09-05T17:29:33.771Z,18.96
2022-09-05T17:32:06.303Z,18.96
2022-09-05T17:34:52.057Z,18.93
2022-09-05T17:37:40.045Z,18.99
2022-09-05T17:40:37.908Z,19.04
2022-09-05T17:43:13.327Z,18.96
2022-09-05T17:45:57.099Z,18.90
2022-09-05T17:49:19.436Z,18.84
2022-09-05T17:52:27.566Z,18.78
2022-09-05T17:54:57.649Z,18.81
2022-09-05T17:57:35.291Z,18.84
2022-09-05T18:00:49.583Z,18.86
2022-09-05T18:04:09.772Z,18.76
2022-09-05T18:06:59.948Z,18.72
2022-09-05T18:09:59.000Z,18.67
2022-09-05T18:13:14.016Z,18.64
2022-09-05T18:16:04.969Z,18.61
2022-09-05T18:19:32.971Z,18.67
2022-09-05T18:21:26.100Z,18.59
2022-09-05T18:24:05.411Z,18.68
2022-09-05T18:26:42.459Z,18.63
2022-09-05T18:29:31.002Z,18.59
2022-09-05T18:32:13.366Z,18.58
2022-09-05T18:34:44.021Z,18.58
2022-09-05T18:37:59.619Z,18.55
2022-09-05T18:41:11.099Z,18.46
2022-09-05T18:44:19.842Z,18.47
2022-09-05T18:46:51.134Z,18.48
2022-09-05T18:50:21.632Z,18.42
2022-09-05T18:52:22.093Z,18.43
2022-09-05T18:56:09.599Z,18.39
2022-09-05T18:57:51.721Z,18.39
2022-09-05T19:00:46.762Z,18.39
2022-09-05T19:03:25.032Z,18.40
2022-09-05T19:06:34.930Z,18.42
2022-09-05T19:08:49.106Z,18.43
2022-09-05T19:11:28.923Z,18.34
2022-09-05T19:14:25.536Z,18.29
2022-09-05T19:17:02.257Z,18.30
2022-09-05T19:19:31.598Z,18.26
2022-09-05T19:22:52.595Z,18.29
2022-09-05T19:24:50.615Z,18.17
2022-09-05T19:28:23.366Z,18.16
2022-09-05T19:36:59.987Z,18.16
2022-09-05T19:37:04.209Z,18.19
2022-09-05T19:37:15.601Z,18.23
2022-09-05T19:42:40.006Z,18.14
2022-09-05T19:47:27.754Z,18.17
2022-09-05T19:47:37.946Z,18.12
2022-09-05T19:47:56.060Z,18.05
2022-09-05T19:50:21.487Z,17.95
2022-09-05T19:52:53.376Z,17.83
2022-09-05T19:55:23.519Z,17.81
2022-09-05T19:58:18.601Z,17.80
2022-09-05T20:00:45.862Z,17.76
2022-09-05T20:03:22.997Z,17.71
2022-09-05T20:05:51.840Z,17.75
2022-09-05T20:08:31.865Z,17.72
2022-09-05T20:11:03.988Z,17.72
2022-09-05T20:13:32.328Z,17.74
2022-09-05T20:16:02.073Z,17.67
2022-09-05T20:18:40.368Z,17.64
2022-09-05T20:21:12.429Z,17.67
2022-09-05T20:23:45.113Z,17.70
2022-09-05T20:26:13.633Z,17.71
2022-09-05T20:28:43.354Z,17.70
2022-09-05T20:31:17.089Z,17.67
2022-09-05T20:33:51.643Z,17.65
2022-09-05T20:43:08.010Z,17.69
2022-09-05T20:43:20.495Z,17.67
2022-09-05T20:43:23.029Z,17.69
2022-09-05T20:44:55.898Z,17.57
2022-09-05T20:54:08.877Z,17.51
2022-09-05T20:54:14.295Z,17.49
2022-09-05T20:54:24.363Z,17.49
2022-09-05T20:56:22.789Z,17.48
2022-09-05T20:58:51.865Z,17.46
2022-09-05T21:01:23.416Z,17.46
2022-09-05T21:03:57.431Z,17.49
2022-09-05T21:06:33.444Z,17.52
2022-09-05T21:09:24.548Z,17.50
2022-09-05T21:11:55.815Z,17.60
2022-09-05T21:14:26.093Z,17.60
2022-09-05T21:16:59.501Z,17.65
2022-09-05T21:19:31.254Z,17.60
2022-09-05T21:22:06.747Z,17.57
2022-09-05T21:24:35.407Z,17.54
2022-09-05T21:27:18.115Z,17.48
2022-09-05T21:29:58.755Z,17.47
2022-09-05T21:32:38.292Z,17.48
2022-09-05T21:35:34.055Z,17.47
2022-09-05T21:38:02.222Z,17.45
2022-09-05T21:40:30.514Z,17.46
2022-09-05T21:47:35.228Z,17.43
2022-09-05T21:47:50.095Z,17.39
2022-09-05T21:48:38.104Z,17.36
2022-09-05T21:51:09.440Z,17.40
2022-09-05T21:59:13.312Z,17.35
2022-09-05T21:59:28.693Z,17.38
2022-09-05T21:59:46.526Z,17.38
2022-09-05T22:02:13.774Z,17.37
2022-09-05T22:04:42.084Z,17.37
2022-09-05T22:07:14.510Z,17.37
2022-09-05T22:09:44.163Z,17.37
2022-09-05T22:12:30.214Z,17.35
2022-09-05T22:15:10.172Z,17.36
2022-09-05T22:17:48.115Z,17.36
2022-09-05T22:20:20.889Z,17.37
2022-09-05T22:22:56.405Z,17.41
2022-09-05T22:25:30.115Z,17.37
2022-09-05T22:28:06.526Z,17.33
2022-09-05T22:30:35.481Z,17.29
2022-09-05T22:33:05.632Z,17.27
2022-09-05T22:35:34.557Z,17.30
2022-09-05T22:38:09.656Z,17.29
2022-09-05T22:40:41.439Z,17.29
2022-09-05T22:43:11.626Z,17.26
2022-09-05T22:45:41.621Z,17.31
2022-09-05T22:48:11.492Z,17.27
2022-09-05T22:50:40.721Z,17.27
2022-09-05T22:53:10.621Z,17.27
2022-09-05T22:55:42.195Z,17.22
2022-09-05T22:58:13.310Z,17.21
2022-09-05T23:00:44.335Z,17.18
2022-09-05T23:03:12.515Z,17.16
2022-09-05T23:05:40.784Z,17.15
2022-09-05T23:08:09.369Z,17.14
2022-09-05T23:10:38.777Z,17.13
2022-09-05T23:13:11.135Z,17.14
2022-09-05T23:15:40.136Z,17.19
2022-09-05T23:18:08.383Z,17.16
2022-09-05T23:20:36.566Z,17.15
2022-09-05T23:23:06.466Z,17.14
2022-09-05T23:25:35.306Z,17.13
2022-09-05T23:28:06.500Z,17.13
2022-09-05T23:30:36.185Z,17.09
2022-09-05T23:33:07.307Z,17.09
2022-09-05T23:35:35.787Z,17.12
2022-09-05T23:38:04.112Z,17.14
2022-09-05T23:40:32.318Z,17.17
2022-09-05T23:43:01.327Z,17.16
2022-09-05T23:45:30.052Z,17.16
2022-09-05T23:48:00.232Z,17.16
2022-09-05T23:50:29.635Z,17.15
2022-09-05T23:52:58.023Z,17.18
2022-09-05T23:55:27.286Z,17.18
2022-09-05T23:57:58.426Z,17.23
